sensor_id;sensor_type;location;lat;lon;timestamp;temperature;humidity
7576;DHT22;3829;50.798;4.358;2023-02-01T00:01:24;7.50;99.90
7576;DHT22;3829;50.798;4.358;2023-02-01T00:03:49;7.40;99.90
7576;DHT22;3829;50.798;4.358;2023-02-01T00:06:15;7.40;99.90
7576;DHT22;3829;50.798;4.358;2023-02-01T00:08:41;7.40;99.90
7576;DHT22;3829;50.798;4.358;2023-02-01T00:11:11;7.40;99.90
7576;DHT22;3829;50.798;4.358;2023-02-01T00:13:40;7.40;99.90
7576;DHT22;3829;50.798;4.358;2023-02-01T00:16:08;7.40;99.90
7576;DHT22;3829;50.798;4.358;2023-02-01T00:18:33;7.40;99.90
7576;DHT22;3829;50.798;4.358;2023-02-01T00:20:59;7.30;99.90
7576;DHT22;3829;50.798;4.358;2023-02-01T00:23:25;7.30;99.90
7576;DHT22;3829;50.798;4.358;2023-02-01T00:25:51;7.30;99.90
7576;DHT22;3829;50.798;4.358;2023-02-01T00:28:16;7.30;99.90
7576;DHT22;3829;50.798;4.358;2023-02-01T00:30:42;7.20;99.90
7576;DHT22;3829;50.798;4.358;2023-02-01T00:33:08;7.20;99.90
7576;DHT22;3829;50.798;4.358;2023-02-01T00:35:34;7.20;99.90
7576;DHT22;3829;50.798;4.358;2023-02-01T00:38:00;7.20;99.90
7576;DHT22;3829;50.798;4.358;2023-02-01T00:40:26;7.20;99.90
7576;DHT22;3829;50.798;4.358;2023-02-01T00:42:51;7.20;99.90
7576;DHT22;3829;50.798;4.358;2023-02-01T00:45:17;7.20;99.90
7576;DHT22;3829;50.798;4.358;2023-02-01T00:47:43;7.20;99.90
7576;DHT22;3829;50.798;4.358;2023-02-01T00:50:09;7.20;99.90
7576;DHT22;3829;50.798;4.358;2023-02-01T00:52:35;7.20;99.90
7576;DHT22;3829;50.798;4.358;2023-02-01T00:55:01;7.20;99.90
7576;DHT22;3829;50.798;4.358;2023-02-01T00:57:26;7.20;99.90
7576;DHT22;3829;50.798;4.358;2023-02-01T00:59:52;7.20;99.90
7576;DHT22;3829;50.798;4.358;2023-02-01T01:02:17;7.30;99.90
7576;DHT22;3829;50.798;4.358;2023-02-01T01:04:43;7.30;99.90
7576;DHT22;3829;50.798;4.358;2023-02-01T01:07:09;7.20;99.90
7576;DHT22;3829;50.798;4.358;2023-02-01T01:09:34;7.30;99.90
7576;DHT22;3829;50.798;4.358;2023-02-01T01:12:00;7.20;99.90
7576;DHT22;3829;50.798;4.358;2023-02-01T01:14:29;7.10;99.90
7576;DHT22;3829;50.798;4.358;2023-02-01T01:16:54;7.10;99.90
7576;DHT22;3829;50.798;4.358;2023-02-01T01:19:20;7.00;99.90
7576;DHT22;3829;50.798;4.358;2023-02-01T01:21:46;7.00;99.90
7576;DHT22;3829;50.798;4.358;2023-02-01T01:24:11;7.00;99.90
7576;DHT22;3829;50.798;4.358;2023-02-01T01:26:37;7.00;99.90
7576;DHT22;3829;50.798;4.358;2023-02-01T01:29:03;7.00;99.90
7576;DHT22;3829;50.798;4.358;2023-02-01T01:31:31;7.00;99.90
7576;DHT22;3829;50.798;4.358;2023-02-01T01:33:58;7.00;99.90
7576;DHT22;3829;50.798;4.358;2023-02-01T01:36:25;7.10;99.90
7576;DHT22;3829;50.798;4.358;2023-02-01T01:38:51;7.00;99.90
7576;DHT22;3829;50.798;4.358;2023-02-01T01:41:22;7.00;99.90
7576;DHT22;3829;50.798;4.358;2023-02-01T01:43:53;7.10;99.90
7576;DHT22;3829;50.798;4.358;2023-02-01T01:46:32;7.10;99.90
7576;DHT22;3829;50.798;4.358;2023-02-01T01:49:11;7.10;99.90
7576;DHT22;3829;50.798;4.358;2023-02-01T01:51:42;7.10;99.90
7576;DHT22;3829;50.798;4.358;2023-02-01T01:54:14;7.20;99.90
7576;DHT22;3829;50.798;4.358;2023-02-01T01:56:44;7.10;99.90
7576;DHT22;3829;50.798;4.358;2023-02-01T01:59:12;7.10;99.90
7576;DHT22;3829;50.798;4.358;2023-02-01T02:01:38;7.10;99.90
7576;DHT22;3829;50.798;4.358;2023-02-01T02:04:04;7.00;99.90
7576;DHT22;3829;50.798;4.358;2023-02-01T02:06:35;7.10;99.90
7576;DHT22;3829;50.798;4.358;2023-02-01T02:09:03;7.20;99.90
7576;DHT22;3829;50.798;4.358;2023-02-01T02:11:28;7.10;99.90
7576;DHT22;3829;50.798;4.358;2023-02-01T02:13:55;7.10;99.90
7576;DHT22;3829;50.798;4.358;2023-02-01T02:33:38;7.20;99.90
7576;DHT22;3829;50.798;4.358;2023-02-01T02:38:47;7.10;99.90
7576;DHT22;3829;50.798;4.358;2023-02-01T02:41:41;7.10;99.90
7576;DHT22;3829;50.798;4.358;2023-02-01T02:50:32;7.00;99.90
7576;DHT22;3829;50.798;4.358;2023-02-01T02:53:31;7.00;99.90
7576;DHT22;3829;50.798;4.358;2023-02-01T02:56:18;7.10;99.90
7576;DHT22;3829;50.798;4.358;2023-02-01T02:59:06;7.00;99.90
7576;DHT22;3829;50.798;4.358;2023-02-01T03:01:51;7.00;99.90
7576;DHT22;3829;50.798;4.358;2023-02-01T03:04:35;6.90;99.90
7576;DHT22;3829;50.798;4.358;2023-02-01T03:10:07;6.70;99.90
7576;DHT22;3829;50.798;4.358;2023-02-01T03:12:36;6.70;99.90
7576;DHT22;3829;50.798;4.358;2023-02-01T03:15:49;6.70;99.90
7576;DHT22;3829;50.798;4.358;2023-02-01T03:18:21;6.60;99.90
7576;DHT22;3829;50.798;4.358;2023-02-01T03:20:52;6.50;99.90
7576;DHT22;3829;50.798;4.358;2023-02-01T03:23:21;6.50;99.90
7576;DHT22;3829;50.798;4.358;2023-02-01T03:25:50;6.50;99.90
7576;DHT22;3829;50.798;4.358;2023-02-01T03:28:18;6.50;99.90
7576;DHT22;3829;50.798;4.358;2023-02-01T03:30:48;6.40;99.90
7576;DHT22;3829;50.798;4.358;2023-02-01T03:33:17;6.40;99.90
7576;DHT22;3829;50.798;4.358;2023-02-01T03:36:14;6.40;99.90
7576;DHT22;3829;50.798;4.358;2023-02-01T03:44:15;6.30;99.90
7576;DHT22;3829;50.798;4.358;2023-02-01T03:46:54;6.30;99.90
7576;DHT22;3829;50.798;4.358;2023-02-01T03:49:31;6.30;99.90
7576;DHT22;3829;50.798;4.358;2023-02-01T03:51:59;6.30;99.90
7576;DHT22;3829;50.798;4.358;2023-02-01T03:54:27;6.20;99.90
7576;DHT22;3829;50.798;4.358;2023-02-01T03:56:56;6.20;99.90
7576;DHT22;3829;50.798;4.358;2023-02-01T03:59:23;6.20;99.90
7576;DHT22;3829;50.798;4.358;2023-02-01T04:01:49;6.20;99.90
7576;DHT22;3829;50.798;4.358;2023-02-01T04:04:16;6.10;99.90
7576;DHT22;3829;50.798;4.358;2023-02-01T04:06:49;6.10;99.90
7576;DHT22;3829;50.798;4.358;2023-02-01T04:09:15;6.10;99.90
7576;DHT22;3829;50.798;4.358;2023-02-01T04:11:40;6.10;99.90
7576;DHT22;3829;50.798;4.358;2023-02-01T04:14:06;6.10;99.90
7576;DHT22;3829;50.798;4.358;2023-02-01T04:16:32;6.10;99.90
7576;DHT22;3829;50.798;4.358;2023-02-01T04:18:58;5.90;99.90
7576;DHT22;3829;50.798;4.358;2023-02-01T04:21:25;5.90;99.90
7576;DHT22;3829;50.798;4.358;2023-02-01T04:23:50;5.80;99.90
7576;DHT22;3829;50.798;4.358;2023-02-01T04:26:16;5.90;99.90
7576;DHT22;3829;50.798;4.358;2023-02-01T04:28:42;5.80;99.90
7576;DHT22;3829;50.798;4.358;2023-02-01T04:31:07;5.70;99.90
7576;DHT22;3829;50.798;4.358;2023-02-01T04:33:33;5.60;99.90
7576;DHT22;3829;50.798;4.358;2023-02-01T04:35:59;5.60;99.90
7576;DHT22;3829;50.798;4.358;2023-02-01T04:38:25;5.60;99.90
7576;DHT22;3829;50.798;4.358;2023-02-01T04:40:50;5.60;99.90
7576;DHT22;3829;50.798;4.358;2023-02-01T04:43:17;5.50;99.90
7576;DHT22;3829;50.798;4.358;2023-02-01T04:45:47;5.50;99.90
7576;DHT22;3829;50.798;4.358;2023-02-01T04:48:14;5.50;99.90
7576;DHT22;3829;50.798;4.358;2023-02-01T04:50:39;5.40;99.90
7576;DHT22;3829;50.798;4.358;2023-02-01T04:53:05;5.40;99.90
7576;DHT22;3829;50.798;4.358;2023-02-01T04:55:31;5.30;99.90
7576;DHT22;3829;50.798;4.358;2023-02-01T04:57:56;5.30;99.90
7576;DHT22;3829;50.798;4.358;2023-02-01T05:00:22;5.30;99.90
7576;DHT22;3829;50.798;4.358;2023-02-01T05:02:48;5.30;99.90
7576;DHT22;3829;50.798;4.358;2023-02-01T05:05:13;5.10;99.90
7576;DHT22;3829;50.798;4.358;2023-02-01T05:07:39;5.20;99.90
7576;DHT22;3829;50.798;4.358;2023-02-01T05:10:05;5.30;99.90
7576;DHT22;3829;50.798;4.358;2023-02-01T05:12:30;5.20;99.90
7576;DHT22;3829;50.798;4.358;2023-02-01T05:15:15;5.20;99.90
7576;DHT22;3829;50.798;4.358;2023-02-01T05:17:40;5.20;99.90
7576;DHT22;3829;50.798;4.358;2023-02-01T05:20:07;5.20;99.90
7576;DHT22;3829;50.798;4.358;2023-02-01T05:22:33;5.20;99.90
7576;DHT22;3829;50.798;4.358;2023-02-01T05:24:58;5.10;99.90
7576;DHT22;3829;50.798;4.358;2023-02-01T05:27:24;5.10;99.90
7576;DHT22;3829;50.798;4.358;2023-02-01T05:29:49;5.10;99.90
7576;DHT22;3829;50.798;4.358;2023-02-01T05:32:15;5.10;99.90
7576;DHT22;3829;50.798;4.358;2023-02-01T05:34:40;5.10;99.90
7576;DHT22;3829;50.798;4.358;2023-02-01T05:37:06;5.10;99.90
7576;DHT22;3829;50.798;4.358;2023-02-01T05:39:32;5.10;99.90
7576;DHT22;3829;50.798;4.358;2023-02-01T05:41:57;5.10;99.90
7576;DHT22;3829;50.798;4.358;2023-02-01T05:44:23;5.10;99.90
7576;DHT22;3829;50.798;4.358;2023-02-01T05:46:48;5.10;99.90
7576;DHT22;3829;50.798;4.358;2023-02-01T05:49:14;5.00;99.90
7576;DHT22;3829;50.798;4.358;2023-02-01T05:51:40;5.00;99.90
7576;DHT22;3829;50.798;4.358;2023-02-01T05:54:05;5.00;99.90
7576;DHT22;3829;50.798;4.358;2023-02-01T05:56:31;4.90;99.90
7576;DHT22;3829;50.798;4.358;2023-02-01T05:58:56;4.90;99.90
7576;DHT22;3829;50.798;4.358;2023-02-01T06:01:22;4.80;99.90
7576;DHT22;3829;50.798;4.358;2023-02-01T06:03:48;4.80;99.90
7576;DHT22;3829;50.798;4.358;2023-02-01T06:06:13;4.90;99.90
7576;DHT22;3829;50.798;4.358;2023-02-01T06:08:39;4.80;99.90
7576;DHT22;3829;50.798;4.358;2023-02-01T06:11:08;4.80;99.90
7576;DHT22;3829;50.798;4.358;2023-02-01T06:13:33;4.80;99.90
7576;DHT22;3829;50.798;4.358;2023-02-01T06:15:59;4.80;99.90
7576;DHT22;3829;50.798;4.358;2023-02-01T06:18:25;4.70;99.90
7576;DHT22;3829;50.798;4.358;2023-02-01T06:20:55;4.70;99.90
7576;DHT22;3829;50.798;4.358;2023-02-01T06:23:21;4.70;99.90
7576;DHT22;3829;50.798;4.358;2023-02-01T06:25:50;4.60;99.90
7576;DHT22;3829;50.798;4.358;2023-02-01T06:28:15;4.60;99.90
7576;DHT22;3829;50.798;4.358;2023-02-01T06:30:41;4.60;99.90
7576;DHT22;3829;50.798;4.358;2023-02-01T06:33:12;4.60;99.90
7576;DHT22;3829;50.798;4.358;2023-02-01T06:35:39;4.60;99.90
7576;DHT22;3829;50.798;4.358;2023-02-01T06:38:04;4.60;99.90
7576;DHT22;3829;50.798;4.358;2023-02-01T06:40:30;4.60;99.90
7576;DHT22;3829;50.798;4.358;2023-02-01T06:42:55;4.50;99.90
7576;DHT22;3829;50.798;4.358;2023-02-01T06:45:21;4.60;99.90
7576;DHT22;3829;50.798;4.358;2023-02-01T06:47:46;4.60;99.90
7576;DHT22;3829;50.798;4.358;2023-02-01T06:50:12;4.60;99.90
7576;DHT22;3829;50.798;4.358;2023-02-01T06:52:38;4.60;99.90
7576;DHT22;3829;50.798;4.358;2023-02-01T06:55:03;4.50;99.90
7576;DHT22;3829;50.798;4.358;2023-02-01T06:57:29;4.50;99.90
7576;DHT22;3829;50.798;4.358;2023-02-01T06:59:56;4.50;99.90
7576;DHT22;3829;50.798;4.358;2023-02-01T07:02:21;4.50;99.90
7576;DHT22;3829;50.798;4.358;2023-02-01T07:04:47;4.50;99.90
7576;DHT22;3829;50.798;4.358;2023-02-01T07:07:12;4.60;99.90
7576;DHT22;3829;50.798;4.358;2023-02-01T07:09:38;4.50;99.90
7576;DHT22;3829;50.798;4.358;2023-02-01T07:12:04;4.60;99.90
7576;DHT22;3829;50.798;4.358;2023-02-01T07:14:30;4.50;99.90
7576;DHT22;3829;50.798;4.358;2023-02-01T07:16:55;4.60;99.90
7576;DHT22;3829;50.798;4.358;2023-02-01T07:19:21;4.50;99.90
7576;DHT22;3829;50.798;4.358;2023-02-01T07:21:47;4.50;99.90
7576;DHT22;3829;50.798;4.358;2023-02-01T07:24:12;4.50;99.90
7576;DHT22;3829;50.798;4.358;2023-02-01T07:26:39;4.50;99.90
7576;DHT22;3829;50.798;4.358;2023-02-01T07:29:05;4.60;99.90
7576;DHT22;3829;50.798;4.358;2023-02-01T07:31:31;4.60;99.90
7576;DHT22;3829;50.798;4.358;2023-02-01T07:33:56;4.50;99.90
7576;DHT22;3829;50.798;4.358;2023-02-01T07:36:23;4.60;99.90
7576;DHT22;3829;50.798;4.358;2023-02-01T07:38:49;4.60;99.90
7576;DHT22;3829;50.798;4.358;2023-02-01T07:41:16;4.60;99.90
7576;DHT22;3829;50.798;4.358;2023-02-01T07:43:44;4.70;99.90
7576;DHT22;3829;50.798;4.358;2023-02-01T07:46:10;4.80;99.90
7576;DHT22;3829;50.798;4.358;2023-02-01T07:48:36;4.70;99.90
7576;DHT22;3829;50.798;4.358;2023-02-01T07:51:08;4.80;99.90
7576;DHT22;3829;50.798;4.358;2023-02-01T07:53:34;4.80;99.90
7576;DHT22;3829;50.798;4.358;2023-02-01T07:56:00;4.90;99.90
7576;DHT22;3829;50.798;4.358;2023-02-01T07:58:27;4.90;99.90
7576;DHT22;3829;50.798;4.358;2023-02-01T08:00:53;5.00;99.90
7576;DHT22;3829;50.798;4.358;2023-02-01T08:03:37;5.10;99.90
7576;DHT22;3829;50.798;4.358;2023-02-01T08:06:03;5.20;99.90
7576;DHT22;3829;50.798;4.358;2023-02-01T08:08:29;5.40;99.90
7576;DHT22;3829;50.798;4.358;2023-02-01T08:11:02;5.40;99.90
7576;DHT22;3829;50.798;4.358;2023-02-01T08:13:28;5.60;99.90
7576;DHT22;3829;50.798;4.358;2023-02-01T08:16:01;5.60;99.90
7576;DHT22;3829;50.798;4.358;2023-02-01T08:18:28;5.60;99.90
7576;DHT22;3829;50.798;4.358;2023-02-01T08:20:53;5.60;99.90
7576;DHT22;3829;50.798;4.358;2023-02-01T08:23:20;5.60;99.90
7576;DHT22;3829;50.798;4.358;2023-02-01T08:25:46;5.70;99.90
7576;DHT22;3829;50.798;4.358;2023-02-01T08:28:12;5.60;99.90
7576;DHT22;3829;50.798;4.358;2023-02-01T08:30:39;5.60;99.90
7576;DHT22;3829;50.798;4.358;2023-02-01T08:33:05;5.60;99.90
7576;DHT22;3829;50.798;4.358;2023-02-01T08:35:34;5.60;99.90
7576;DHT22;3829;50.798;4.358;2023-02-01T08:38:00;5.50;99.90
7576;DHT22;3829;50.798;4.358;2023-02-01T08:40:25;5.40;99.90
7576;DHT22;3829;50.798;4.358;2023-02-01T08:42:51;5.50;99.90
7576;DHT22;3829;50.798;4.358;2023-02-01T08:45:18;5.50;99.90
7576;DHT22;3829;50.798;4.358;2023-02-01T08:47:45;5.60;99.90
7576;DHT22;3829;50.798;4.358;2023-02-01T08:50:13;5.60;99.90
7576;DHT22;3829;50.798;4.358;2023-02-01T08:52:39;5.70;99.90
7576;DHT22;3829;50.798;4.358;2023-02-01T08:55:06;5.70;99.90
7576;DHT22;3829;50.798;4.358;2023-02-01T08:57:33;5.80;99.90
7576;DHT22;3829;50.798;4.358;2023-02-01T08:59:59;5.80;99.90
7576;DHT22;3829;50.798;4.358;2023-02-01T09:02:25;5.80;99.90
7576;DHT22;3829;50.798;4.358;2023-02-01T09:04:52;5.80;99.90
7576;DHT22;3829;50.798;4.358;2023-02-01T09:07:18;5.80;99.90
7576;DHT22;3829;50.798;4.358;2023-02-01T09:09:44;5.90;99.90
7576;DHT22;3829;50.798;4.358;2023-02-01T09:12:11;5.90;99.90
7576;DHT22;3829;50.798;4.358;2023-02-01T09:14:36;6.00;99.90
7576;DHT22;3829;50.798;4.358;2023-02-01T09:17:02;6.00;99.90
7576;DHT22;3829;50.798;4.358;2023-02-01T09:19:28;6.00;99.90
7576;DHT22;3829;50.798;4.358;2023-02-01T09:21:54;6.10;99.90
7576;DHT22;3829;50.798;4.358;2023-02-01T09:24:20;6.20;99.90
7576;DHT22;3829;50.798;4.358;2023-02-01T09:26:45;6.10;99.90
7576;DHT22;3829;50.798;4.358;2023-02-01T09:29:11;6.30;99.90
7576;DHT22;3829;50.798;4.358;2023-02-01T09:31:38;6.50;99.90
7576;DHT22;3829;50.798;4.358;2023-02-01T09:34:04;6.60;99.90
7576;DHT22;3829;50.798;4.358;2023-02-01T09:36:30;6.60;99.90
7576;DHT22;3829;50.798;4.358;2023-02-01T09:38:58;6.60;99.90
7576;DHT22;3829;50.798;4.358;2023-02-01T09:46:55;6.80;99.90
7576;DHT22;3829;50.798;4.358;2023-02-01T09:49:39;7.00;99.90
7576;DHT22;3829;50.798;4.358;2023-02-01T09:52:11;7.10;99.90
7576;DHT22;3829;50.798;4.358;2023-02-01T09:54:49;7.30;99.90
7576;DHT22;3829;50.798;4.358;2023-02-01T09:57:24;7.30;99.90
7576;DHT22;3829;50.798;4.358;2023-02-01T10:00:03;7.30;99.90
7576;DHT22;3829;50.798;4.358;2023-02-01T10:02:30;7.30;99.90
7576;DHT22;3829;50.798;4.358;2023-02-01T10:04:59;7.30;99.90
7576;DHT22;3829;50.798;4.358;2023-02-01T10:10:05;7.30;99.90
7576;DHT22;3829;50.798;4.358;2023-02-01T10:20:21;7.70;99.90
7576;DHT22;3829;50.798;4.358;2023-02-01T10:25:26;7.70;99.90
7576;DHT22;3829;50.798;4.358;2023-02-01T10:27:52;7.80;99.90
7576;DHT22;3829;50.798;4.358;2023-02-01T10:30:21;7.90;99.90
7576;DHT22;3829;50.798;4.358;2023-02-01T10:32:54;8.00;99.90
7576;DHT22;3829;50.798;4.358;2023-02-01T10:35:34;8.00;99.90
7576;DHT22;3829;50.798;4.358;2023-02-01T10:38:02;8.10;99.90
7576;DHT22;3829;50.798;4.358;2023-02-01T10:40:28;8.10;99.90
7576;DHT22;3829;50.798;4.358;2023-02-01T10:42:58;8.00;99.90
7576;DHT22;3829;50.798;4.358;2023-02-01T10:45:29;8.10;99.90
7576;DHT22;3829;50.798;4.358;2023-02-01T10:47:57;8.10;99.90
7576;DHT22;3829;50.798;4.358;2023-02-01T10:50:35;8.10;99.90
7576;DHT22;3829;50.798;4.358;2023-02-01T10:53:15;8.20;99.90
7576;DHT22;3829;50.798;4.358;2023-02-01T10:55:46;8.30;99.90
7576;DHT22;3829;50.798;4.358;2023-02-01T11:00:56;8.60;99.90
7576;DHT22;3829;50.798;4.358;2023-02-01T11:14:38;9.10;99.90
7576;DHT22;3829;50.798;4.358;2023-02-01T11:20:13;8.90;99.90
7576;DHT22;3829;50.798;4.358;2023-02-01T11:22:32;8.90;99.90
7576;DHT22;3829;50.798;4.358;2023-02-01T11:24:59;9.00;99.90
7576;DHT22;3829;50.798;4.358;2023-02-01T11:27:27;9.00;99.90
7576;DHT22;3829;50.798;4.358;2023-02-01T11:29:57;9.30;99.90
7576;DHT22;3829;50.798;4.358;2023-02-01T11:32:24;9.50;99.90
7576;DHT22;3829;50.798;4.358;2023-02-01T11:34:57;9.60;99.90
7576;DHT22;3829;50.798;4.358;2023-02-01T11:37:55;9.70;99.90
7576;DHT22;3829;50.798;4.358;2023-02-01T11:40:38;9.70;99.90
7576;DHT22;3829;50.798;4.358;2023-02-01T11:45:59;9.70;99.90
7576;DHT22;3829;50.798;4.358;2023-02-01T11:48:27;9.60;99.90
7576;DHT22;3829;50.798;4.358;2023-02-01T12:06:24;9.10;99.90
7576;DHT22;3829;50.798;4.358;2023-02-01T12:12:11;9.30;99.90
7576;DHT22;3829;50.798;4.358;2023-02-01T12:15:12;9.40;99.90
7576;DHT22;3829;50.798;4.358;2023-02-01T12:31:49;9.50;99.90
7576;DHT22;3829;50.798;4.358;2023-02-01T12:34:44;9.60;99.90
7576;DHT22;3829;50.798;4.358;2023-02-01T12:42:37;9.80;99.90
7576;DHT22;3829;50.798;4.358;2023-02-01T12:45:25;9.80;99.90
7576;DHT22;3829;50.798;4.358;2023-02-01T12:50:46;9.90;99.90
7576;DHT22;3829;50.798;4.358;2023-02-01T12:53:21;9.90;99.90
7576;DHT22;3829;50.798;4.358;2023-02-01T12:55:54;9.80;99.90
7576;DHT22;3829;50.798;4.358;2023-02-01T13:01:03;9.90;99.90
7576;DHT22;3829;50.798;4.358;2023-02-01T13:06:16;10.00;99.90
7576;DHT22;3829;50.798;4.358;2023-02-01T13:11:34;9.90;99.90
7576;DHT22;3829;50.798;4.358;2023-02-01T13:14:17;10.00;99.90
7576;DHT22;3829;50.798;4.358;2023-02-01T13:16:48;10.00;99.90
7576;DHT22;3829;50.798;4.358;2023-02-01T13:21:50;10.00;99.90
7576;DHT22;3829;50.798;4.358;2023-02-01T13:24:46;10.00;99.90
7576;DHT22;3829;50.798;4.358;2023-02-01T13:27:17;10.00;99.90
7576;DHT22;3829;50.798;4.358;2023-02-01T13:43:38;9.90;99.90
7576;DHT22;3829;50.798;4.358;2023-02-01T13:46:09;10.00;99.90
7576;DHT22;3829;50.798;4.358;2023-02-01T13:48:53;10.00;99.90
7576;DHT22;3829;50.798;4.358;2023-02-01T13:51:34;9.90;99.90
7576;DHT22;3829;50.798;4.358;2023-02-01T13:54:00;9.90;99.90
7576;DHT22;3829;50.798;4.358;2023-02-01T13:56:26;10.00;99.90
7576;DHT22;3829;50.798;4.358;2023-02-01T13:58:52;9.90;99.90
7576;DHT22;3829;50.798;4.358;2023-02-01T14:04:04;9.90;99.90
7576;DHT22;3829;50.798;4.358;2023-02-01T14:19:22;10.40;99.90
7576;DHT22;3829;50.798;4.358;2023-02-01T14:21:59;10.40;99.90
7576;DHT22;3829;50.798;4.358;2023-02-01T14:24:34;10.40;99.90
7576;DHT22;3829;50.798;4.358;2023-02-01T14:29:40;10.10;99.90
7576;DHT22;3829;50.798;4.358;2023-02-01T14:32:22;10.00;99.90
7576;DHT22;3829;50.798;4.358;2023-02-01T14:34:55;10.00;99.90
7576;DHT22;3829;50.798;4.358;2023-02-01T14:37:30;10.00;99.90
7576;DHT22;3829;50.798;4.358;2023-02-01T14:40:05;9.90;99.90
7576;DHT22;3829;50.798;4.358;2023-02-01T14:42:50;9.90;99.90
7576;DHT22;3829;50.798;4.358;2023-02-01T14:50:41;10.00;99.90
7576;DHT22;3829;50.798;4.358;2023-02-01T14:55:50;10.10;99.90
7576;DHT22;3829;50.798;4.358;2023-02-01T14:58:42;10.10;99.90
7576;DHT22;3829;50.798;4.358;2023-02-01T15:01:20;10.00;99.90
7576;DHT22;3829;50.798;4.358;2023-02-01T15:03:53;9.90;99.90
7576;DHT22;3829;50.798;4.358;2023-02-01T15:06:30;9.80;99.90
7576;DHT22;3829;50.798;4.358;2023-02-01T15:09:04;9.70;99.90
7576;DHT22;3829;50.798;4.358;2023-02-01T15:11:33;9.70;99.90
7576;DHT22;3829;50.798;4.358;2023-02-01T15:14:18;9.70;99.90
7576;DHT22;3829;50.798;4.358;2023-02-01T15:16:43;9.70;99.90
7576;DHT22;3829;50.798;4.358;2023-02-01T15:19:15;9.70;99.90
7576;DHT22;3829;50.798;4.358;2023-02-01T15:21:49;9.70;99.90
7576;DHT22;3829;50.798;4.358;2023-02-01T15:24:26;9.70;99.90
7576;DHT22;3829;50.798;4.358;2023-02-01T15:26:53;9.60;99.90
7576;DHT22;3829;50.798;4.358;2023-02-01T15:29:21;9.50;99.90
7576;DHT22;3829;50.798;4.358;2023-02-01T15:31:51;9.50;99.90
7576;DHT22;3829;50.798;4.358;2023-02-01T15:34:17;9.40;99.90
7576;DHT22;3829;50.798;4.358;2023-02-01T15:36:44;9.40;99.90
7576;DHT22;3829;50.798;4.358;2023-02-01T15:39:24;9.40;99.90
7576;DHT22;3829;50.798;4.358;2023-02-01T15:41:59;9.40;99.90
7576;DHT22;3829;50.798;4.358;2023-02-01T15:46:57;9.40;99.90
7576;DHT22;3829;50.798;4.358;2023-02-01T15:49:37;9.40;99.90
7576;DHT22;3829;50.798;4.358;2023-02-01T15:52:22;9.40;99.90
7576;DHT22;3829;50.798;4.358;2023-02-01T15:54:52;9.40;99.90
7576;DHT22;3829;50.798;4.358;2023-02-01T15:57:31;9.30;99.90
7576;DHT22;3829;50.798;4.358;2023-02-01T16:00:02;9.40;99.90
7576;DHT22;3829;50.798;4.358;2023-02-01T16:02:43;9.40;99.90
7576;DHT22;3829;50.798;4.358;2023-02-01T16:05:33;9.30;99.90
7576;DHT22;3829;50.798;4.358;2023-02-01T16:08:09;9.30;99.90
7576;DHT22;3829;50.798;4.358;2023-02-01T16:10:43;9.30;99.90
7576;DHT22;3829;50.798;4.358;2023-02-01T16:13:09;9.30;99.90
7576;DHT22;3829;50.798;4.358;2023-02-01T16:15:35;9.30;99.90
7576;DHT22;3829;50.798;4.358;2023-02-01T16:18:01;9.30;99.90
7576;DHT22;3829;50.798;4.358;2023-02-01T16:20:26;9.20;99.90
7576;DHT22;3829;50.798;4.358;2023-02-01T16:22:52;9.20;99.90
7576;DHT22;3829;50.798;4.358;2023-02-01T16:25:18;9.20;99.90
7576;DHT22;3829;50.798;4.358;2023-02-01T16:27:44;9.20;99.90
7576;DHT22;3829;50.798;4.358;2023-02-01T16:30:10;9.20;99.90
7576;DHT22;3829;50.798;4.358;2023-02-01T16:32:37;9.20;99.90
7576;DHT22;3829;50.798;4.358;2023-02-01T16:35:15;9.20;99.90
7576;DHT22;3829;50.798;4.358;2023-02-01T16:37:44;9.20;99.90
7576;DHT22;3829;50.798;4.358;2023-02-01T16:40:14;9.20;99.90
7576;DHT22;3829;50.798;4.358;2023-02-01T16:42:40;9.20;99.90
7576;DHT22;3829;50.798;4.358;2023-02-01T16:45:07;9.20;99.90
7576;DHT22;3829;50.798;4.358;2023-02-01T16:47:34;9.10;99.90
7576;DHT22;3829;50.798;4.358;2023-02-01T16:50:01;9.10;99.90
7576;DHT22;3829;50.798;4.358;2023-02-01T16:52:27;9.10;99.90
7576;DHT22;3829;50.798;4.358;2023-02-01T16:54:52;9.10;99.90
7576;DHT22;3829;50.798;4.358;2023-02-01T16:57:19;9.10;99.90
7576;DHT22;3829;50.798;4.358;2023-02-01T16:59:48;9.10;99.90
7576;DHT22;3829;50.798;4.358;2023-02-01T17:02:18;9.20;99.90
7576;DHT22;3829;50.798;4.358;2023-02-01T17:04:47;9.10;99.90
7576;DHT22;3829;50.798;4.358;2023-02-01T17:07:18;9.10;99.90
7576;DHT22;3829;50.798;4.358;2023-02-01T17:09:45;9.10;99.90
7576;DHT22;3829;50.798;4.358;2023-02-01T17:12:28;9.10;99.90
7576;DHT22;3829;50.798;4.358;2023-02-01T17:14:55;9.10;99.90
7576;DHT22;3829;50.798;4.358;2023-02-01T17:17:21;9.00;99.90
7576;DHT22;3829;50.798;4.358;2023-02-01T17:19:50;9.00;99.90
7576;DHT22;3829;50.798;4.358;2023-02-01T17:22:20;9.00;99.90
7576;DHT22;3829;50.798;4.358;2023-02-01T17:24:46;8.90;99.90
7576;DHT22;3829;50.798;4.358;2023-02-01T17:27:12;8.90;99.90
7576;DHT22;3829;50.798;4.358;2023-02-01T17:29:38;8.90;99.90
7576;DHT22;3829;50.798;4.358;2023-02-01T17:32:04;8.80;99.90
7576;DHT22;3829;50.798;4.358;2023-02-01T17:34:29;8.70;99.90
7576;DHT22;3829;50.798;4.358;2023-02-01T17:36:55;8.70;99.90
7576;DHT22;3829;50.798;4.358;2023-02-01T17:39:21;8.70;99.90
7576;DHT22;3829;50.798;4.358;2023-02-01T17:42:08;8.60;99.90
7576;DHT22;3829;50.798;4.358;2023-02-01T17:44:34;8.60;99.90
7576;DHT22;3829;50.798;4.358;2023-02-01T17:47:00;8.60;99.90
7576;DHT22;3829;50.798;4.358;2023-02-01T17:49:26;8.60;99.90
7576;DHT22;3829;50.798;4.358;2023-02-01T17:51:56;8.60;99.90
7576;DHT22;3829;50.798;4.358;2023-02-01T17:54:21;8.60;99.90
7576;DHT22;3829;50.798;4.358;2023-02-01T17:56:47;8.60;99.90
7576;DHT22;3829;50.798;4.358;2023-02-01T17:59:14;8.60;99.90
7576;DHT22;3829;50.798;4.358;2023-02-01T18:01:40;8.70;99.90
7576;DHT22;3829;50.798;4.358;2023-02-01T18:04:10;8.80;99.90
7576;DHT22;3829;50.798;4.358;2023-02-01T18:06:37;8.60;99.90
7576;DHT22;3829;50.798;4.358;2023-02-01T18:09:02;8.70;99.90
7576;DHT22;3829;50.798;4.358;2023-02-01T18:11:28;8.70;99.90
7576;DHT22;3829;50.798;4.358;2023-02-01T18:13:57;8.70;99.90
7576;DHT22;3829;50.798;4.358;2023-02-01T18:16:31;8.70;99.90
7576;DHT22;3829;50.798;4.358;2023-02-01T18:18:57;8.80;99.90
7576;DHT22;3829;50.798;4.358;2023-02-01T18:21:35;8.70;99.90
7576;DHT22;3829;50.798;4.358;2023-02-01T18:24:01;8.70;99.90
7576;DHT22;3829;50.798;4.358;2023-02-01T18:26:27;8.70;99.90
7576;DHT22;3829;50.798;4.358;2023-02-01T18:28:52;8.70;99.90
7576;DHT22;3829;50.798;4.358;2023-02-01T18:31:21;8.70;99.90
7576;DHT22;3829;50.798;4.358;2023-02-01T18:33:48;8.70;99.90
7576;DHT22;3829;50.798;4.358;2023-02-01T18:36:14;8.70;99.90
7576;DHT22;3829;50.798;4.358;2023-02-01T18:38:40;8.70;99.90
7576;DHT22;3829;50.798;4.358;2023-02-01T18:41:12;8.70;99.90
7576;DHT22;3829;50.798;4.358;2023-02-01T18:43:39;8.70;99.90
7576;DHT22;3829;50.798;4.358;2023-02-01T18:46:05;8.70;99.90
7576;DHT22;3829;50.798;4.358;2023-02-01T18:48:31;8.70;99.90
7576;DHT22;3829;50.798;4.358;2023-02-01T18:50:57;8.70;99.90
7576;DHT22;3829;50.798;4.358;2023-02-01T18:53:23;8.60;99.90
7576;DHT22;3829;50.798;4.358;2023-02-01T18:55:53;8.60;99.90
7576;DHT22;3829;50.798;4.358;2023-02-01T18:58:18;8.60;99.90
7576;DHT22;3829;50.798;4.358;2023-02-01T19:00:45;8.60;99.90
7576;DHT22;3829;50.798;4.358;2023-02-01T19:03:12;8.60;99.90
7576;DHT22;3829;50.798;4.358;2023-02-01T19:05:37;8.60;99.90
7576;DHT22;3829;50.798;4.358;2023-02-01T19:08:03;8.60;99.90
7576;DHT22;3829;50.798;4.358;2023-02-01T19:10:29;8.60;99.90
7576;DHT22;3829;50.798;4.358;2023-02-01T19:12:54;8.60;99.90
7576;DHT22;3829;50.798;4.358;2023-02-01T19:15:22;8.60;99.90
7576;DHT22;3829;50.798;4.358;2023-02-01T19:17:49;8.60;99.90